KICL/ICL METAR and TAF weather

Enter ICAO airport designator
Station Type Date Time Source
KICL METAR 2018/12/15 22:55 UTC NOAA

KICL 152255Z AUTO 21003KT 10SM CLR 05/M03 A3016 RMK AO2


Station Type Date Time Source
KICL Decoded METAR 2018/12/15 22:55 UTC NOAA

Clarinda, IA, United States (KICL) 40-43N 095-02W
Dec 15, 2018 - 05:55 PM EST / 2018.12.15 2255 UTC
Wind: from the SSW (210 degrees) at 3 MPH (3 KT):0
Visibility: 10 mile(s):0
Sky conditions: clear
Temperature: 41 F (5 C)
Dew Point: 26 F (-3 C)
Relative Humidity: 56%
Pressure (altimeter): 30.16 in. Hg (1021 hPa)
ob: KICL 152255Z AUTO 21003KT 10SM CLR 05/M03 A3016 RMK AO2
cycle: 23

Station Type Date Time Source
KICL TAF UTC NOAA

Error!


Example: see airport list